Terminal Aerodrome Forecast
Issued by NWS Cleveland, OH

Home | Current Version | Previous Version | Text Only | Print | Product List | Glossary Off
Versions: 1 2 3 4 5 6 7 8 9 10 11 12 13 14 15 16 17 18 19 20 21 22 23 24 25

000
FTUS41 KCLE 201100
TAFMFD
TAF
KMFD 201130Z 2012/2112 20008KT 6SM -SHRA BKN070 OVC100
     FM201500 23012G18KT P6SM VCSH BKN035 OVC060
     FM210200 26008KT 5SM -SHRA BR OVC025
     FM210700 29008KT 4SM -SHRA BR BKN008 OVC015=

USA.gov is the U.S. government's official web portal to all federal, state and local government web resources and services.